sensor_id;sensor_type;location;lat;lon;timestamp;pressure;altitude;pressure_sealevel;temperature;humidity
16613;BME280;8419;52.358;9.752;2023-01-15T00:01:46;98974.00;;;19.32;42.53
16613;BME280;8419;52.358;9.752;2023-01-15T00:04:32;98980.00;;;18.91;42.83
16613;BME280;8419;52.358;9.752;2023-01-15T00:07:17;98973.00;;;18.75;42.97
16613;BME280;8419;52.358;9.752;2023-01-15T00:10:03;98997.00;;;18.69;43.03
16613;BME280;8419;52.358;9.752;2023-01-15T00:12:50;99007.00;;;18.36;43.55
16613;BME280;8419;52.358;9.752;2023-01-15T00:15:35;98998.00;;;18.22;43.84
16613;BME280;8419;52.358;9.752;2023-01-15T00:18:20;99000.00;;;18.15;43.94
16613;BME280;8419;52.358;9.752;2023-01-15T00:21:08;99016.00;;;18.02;43.97
16613;BME280;8419;52.358;9.752;2023-01-15T00:23:54;99012.00;;;17.75;44.43
16613;BME280;8419;52.358;9.752;2023-01-15T00:26:58;99012.00;;;17.77;44.22
16613;BME280;8419;52.358;9.752;2023-01-15T00:30:02;99009.00;;;17.60;44.30
16613;BME280;8419;52.358;9.752;2023-01-15T00:32:47;99009.00;;;17.46;44.25
16613;BME280;8419;52.358;9.752;2023-01-15T00:35:33;98994.00;;;17.29;44.21
16613;BME280;8419;52.358;9.752;2023-01-15T00:38:18;99030.00;;;17.20;44.20
16613;BME280;8419;52.358;9.752;2023-01-15T00:41:03;99027.00;;;17.17;44.22
16613;BME280;8419;52.358;9.752;2023-01-15T00:43:49;99026.00;;;16.98;44.53
16613;BME280;8419;52.358;9.752;2023-01-15T00:46:34;99034.00;;;16.93;44.39
16613;BME280;8419;52.358;9.752;2023-01-15T00:49:19;99041.00;;;16.83;44.44
16613;BME280;8419;52.358;9.752;2023-01-15T00:52:05;99033.00;;;16.75;44.57
16613;BME280;8419;52.358;9.752;2023-01-15T00:54:50;99051.00;;;16.58;44.90
16613;BME280;8419;52.358;9.752;2023-01-15T00:57:38;99050.00;;;16.48;44.95
16613;BME280;8419;52.358;9.752;2023-01-15T01:00:23;99055.00;;;16.45;44.86
16613;BME280;8419;52.358;9.752;2023-01-15T01:03:08;99056.00;;;16.39;44.90
16613;BME280;8419;52.358;9.752;2023-01-15T01:05:58;99082.00;;;16.29;44.98
16613;BME280;8419;52.358;9.752;2023-01-15T01:08:44;99074.00;;;16.18;45.10
16613;BME280;8419;52.358;9.752;2023-01-15T01:11:30;99075.00;;;16.10;45.40
16613;BME280;8419;52.358;9.752;2023-01-15T01:14:18;99071.00;;;16.06;45.29
16613;BME280;8419;52.358;9.752;2023-01-15T01:17:03;99071.00;;;16.03;45.17
16613;BME280;8419;52.358;9.752;2023-01-15T01:19:48;99079.00;;;15.95;45.14
16613;BME280;8419;52.358;9.752;2023-01-15T01:22:34;99095.00;;;15.88;45.15
16613;BME280;8419;52.358;9.752;2023-01-15T01:25:20;99079.00;;;15.89;45.07
16613;BME280;8419;52.358;9.752;2023-01-15T01:28:05;99104.00;;;15.81;45.16
16613;BME280;8419;52.358;9.752;2023-01-15T01:30:50;99092.00;;;15.74;45.20
16613;BME280;8419;52.358;9.752;2023-01-15T01:33:35;99116.00;;;15.66;45.29
16613;BME280;8419;52.358;9.752;2023-01-15T01:36:26;99116.00;;;15.68;45.46
16613;BME280;8419;52.358;9.752;2023-01-15T01:39:14;99120.00;;;15.65;45.37
16613;BME280;8419;52.358;9.752;2023-01-15T01:41:59;99138.00;;;15.69;45.11
16613;BME280;8419;52.358;9.752;2023-01-15T01:45:11;99133.00;;;15.55;45.30
16613;BME280;8419;52.358;9.752;2023-01-15T01:48:04;99146.00;;;15.52;45.40
16613;BME280;8419;52.358;9.752;2023-01-15T01:50:51;99128.00;;;15.44;45.36
16613;BME280;8419;52.358;9.752;2023-01-15T01:53:38;99134.00;;;15.36;45.40
16613;BME280;8419;52.358;9.752;2023-01-15T01:56:24;99133.00;;;15.49;45.04
16613;BME280;8419;52.358;9.752;2023-01-15T01:59:09;99126.00;;;15.36;45.10
16613;BME280;8419;52.358;9.752;2023-01-15T02:01:55;99127.00;;;15.34;45.01
16613;BME280;8419;52.358;9.752;2023-01-15T02:04:41;99131.00;;;15.22;45.13
16613;BME280;8419;52.358;9.752;2023-01-15T02:07:26;99121.00;;;15.05;45.37
16613;BME280;8419;52.358;9.752;2023-01-15T02:10:16;99132.00;;;15.02;45.41
16613;BME280;8419;52.358;9.752;2023-01-15T02:13:04;99126.00;;;15.04;45.36
16613;BME280;8419;52.358;9.752;2023-01-15T02:15:55;99121.00;;;15.05;45.45
16613;BME280;8419;52.358;9.752;2023-01-15T02:18:50;99158.00;;;15.05;45.48
16613;BME280;8419;52.358;9.752;2023-01-15T02:21:47;99134.00;;;15.08;45.22
16613;BME280;8419;52.358;9.752;2023-01-15T02:24:41;99139.00;;;14.99;45.44
16613;BME280;8419;52.358;9.752;2023-01-15T02:27:33;99125.00;;;15.00;45.37
16613;BME280;8419;52.358;9.752;2023-01-15T02:30:25;99137.00;;;15.02;45.47
16613;BME280;8419;52.358;9.752;2023-01-15T02:33:15;99127.00;;;15.02;45.55
16613;BME280;8419;52.358;9.752;2023-01-15T02:36:05;99129.00;;;15.03;45.57
16613;BME280;8419;52.358;9.752;2023-01-15T02:38:53;99118.00;;;15.08;45.50
16613;BME280;8419;52.358;9.752;2023-01-15T02:41:43;99128.00;;;15.31;45.04
16613;BME280;8419;52.358;9.752;2023-01-15T02:44:31;99144.00;;;15.31;45.12
16613;BME280;8419;52.358;9.752;2023-01-15T02:47:20;99134.00;;;15.36;44.79
16613;BME280;8419;52.358;9.752;2023-01-15T02:50:13;99117.00;;;15.34;44.73
16613;BME280;8419;52.358;9.752;2023-01-15T02:53:02;99110.00;;;15.39;44.78
16613;BME280;8419;52.358;9.752;2023-01-15T02:55:55;99116.00;;;15.43;44.47
16613;BME280;8419;52.358;9.752;2023-01-15T02:58:43;99101.00;;;15.53;44.54
16613;BME280;8419;52.358;9.752;2023-01-15T03:01:31;99098.00;;;15.56;44.46
16613;BME280;8419;52.358;9.752;2023-01-15T03:04:23;99103.00;;;15.55;44.47
16613;BME280;8419;52.358;9.752;2023-01-15T03:07:17;99094.00;;;15.65;44.44
16613;BME280;8419;52.358;9.752;2023-01-15T03:10:05;99098.00;;;15.71;44.36
16613;BME280;8419;52.358;9.752;2023-01-15T03:12:58;99096.00;;;15.76;44.29
16613;BME280;8419;52.358;9.752;2023-01-15T03:15:54;99090.00;;;15.72;44.50
16613;BME280;8419;52.358;9.752;2023-01-15T03:19:03;99109.00;;;15.79;44.35
16613;BME280;8419;52.358;9.752;2023-01-15T03:21:54;99104.00;;;15.70;44.55
16613;BME280;8419;52.358;9.752;2023-01-15T03:24:43;99103.00;;;15.95;44.07
16613;BME280;8419;52.358;9.752;2023-01-15T03:27:31;99102.00;;;16.06;43.87
16613;BME280;8419;52.358;9.752;2023-01-15T03:30:19;99088.00;;;16.10;43.80
16613;BME280;8419;52.358;9.752;2023-01-15T03:33:05;99090.00;;;15.97;44.13
16613;BME280;8419;52.358;9.752;2023-01-15T03:35:57;99083.00;;;16.10;43.90
16613;BME280;8419;52.358;9.752;2023-01-15T03:38:43;99078.00;;;16.14;43.82
16613;BME280;8419;52.358;9.752;2023-01-15T03:41:38;99088.00;;;15.97;44.06
16613;BME280;8419;52.358;9.752;2023-01-15T03:44:34;99086.00;;;15.93;44.23
16613;BME280;8419;52.358;9.752;2023-01-15T03:47:29;99091.00;;;15.93;44.33
16613;BME280;8419;52.358;9.752;2023-01-15T03:50:23;99094.00;;;15.80;44.64
16613;BME280;8419;52.358;9.752;2023-01-15T03:53:16;99071.00;;;15.90;44.31
16613;BME280;8419;52.358;9.752;2023-01-15T03:56:08;99077.00;;;15.86;44.44
16613;BME280;8419;52.358;9.752;2023-01-15T03:58:59;99075.00;;;15.83;44.63
16613;BME280;8419;52.358;9.752;2023-01-15T04:01:47;99054.00;;;15.89;44.51
16613;BME280;8419;52.358;9.752;2023-01-15T04:04:33;99067.00;;;15.88;44.63
16613;BME280;8419;52.358;9.752;2023-01-15T04:07:19;99057.00;;;15.85;44.68
16613;BME280;8419;52.358;9.752;2023-01-15T04:10:09;99049.00;;;15.87;44.69
16613;BME280;8419;52.358;9.752;2023-01-15T04:12:54;99060.00;;;15.90;44.58
16613;BME280;8419;52.358;9.752;2023-01-15T04:15:39;99062.00;;;15.97;44.30
16613;BME280;8419;52.358;9.752;2023-01-15T04:18:24;99045.00;;;15.90;44.36
16613;BME280;8419;52.358;9.752;2023-01-15T04:21:09;99044.00;;;15.90;44.36
16613;BME280;8419;52.358;9.752;2023-01-15T04:23:55;99043.00;;;15.96;44.19
16613;BME280;8419;52.358;9.752;2023-01-15T04:26:40;99041.00;;;16.04;44.04
16613;BME280;8419;52.358;9.752;2023-01-15T04:29:25;99031.00;;;16.06;43.92
16613;BME280;8419;52.358;9.752;2023-01-15T04:32:11;99043.00;;;16.02;44.02
16613;BME280;8419;52.358;9.752;2023-01-15T04:34:56;99053.00;;;15.89;44.32
16613;BME280;8419;52.358;9.752;2023-01-15T04:37:42;99052.00;;;15.95;44.23
16613;BME280;8419;52.358;9.752;2023-01-15T04:40:27;99057.00;;;15.98;44.19
16613;BME280;8419;52.358;9.752;2023-01-15T04:43:31;99045.00;;;16.05;44.02
16613;BME280;8419;52.358;9.752;2023-01-15T04:46:36;99041.00;;;16.04;44.00
16613;BME280;8419;52.358;9.752;2023-01-15T04:49:22;99031.00;;;16.03;43.90
16613;BME280;8419;52.358;9.752;2023-01-15T04:52:08;99042.00;;;16.02;43.84
16613;BME280;8419;52.358;9.752;2023-01-15T04:54:54;99042.00;;;15.92;43.83
16613;BME280;8419;52.358;9.752;2023-01-15T04:57:39;99052.00;;;15.98;43.63
16613;BME280;8419;52.358;9.752;2023-01-15T05:00:24;99042.00;;;16.08;43.39
16613;BME280;8419;52.358;9.752;2023-01-15T05:03:10;99049.00;;;16.07;43.42
16613;BME280;8419;52.358;9.752;2023-01-15T05:05:59;99058.00;;;15.92;43.53
16613;BME280;8419;52.358;9.752;2023-01-15T05:08:45;99064.00;;;15.97;43.44
16613;BME280;8419;52.358;9.752;2023-01-15T05:11:34;99038.00;;;15.93;43.40
16613;BME280;8419;52.358;9.752;2023-01-15T05:14:19;99047.00;;;15.92;43.54
16613;BME280;8419;52.358;9.752;2023-01-15T05:17:04;99055.00;;;15.84;43.74
16613;BME280;8419;52.358;9.752;2023-01-15T05:19:49;99054.00;;;15.90;43.71
16613;BME280;8419;52.358;9.752;2023-01-15T05:22:34;99046.00;;;15.94;43.56
16613;BME280;8419;52.358;9.752;2023-01-15T05:25:20;99032.00;;;15.86;43.75
16613;BME280;8419;52.358;9.752;2023-01-15T05:28:05;99024.00;;;15.91;43.63
16613;BME280;8419;52.358;9.752;2023-01-15T05:30:50;99026.00;;;15.97;43.52
16613;BME280;8419;52.358;9.752;2023-01-15T05:33:36;99038.00;;;15.85;43.61
16613;BME280;8419;52.358;9.752;2023-01-15T05:36:23;99032.00;;;15.88;43.44
16613;BME280;8419;52.358;9.752;2023-01-15T05:39:08;99029.00;;;16.13;42.89
16613;BME280;8419;52.358;9.752;2023-01-15T05:41:54;99033.00;;;16.15;42.68
16613;BME280;8419;52.358;9.752;2023-01-15T05:44:39;99040.00;;;16.07;42.80
16613;BME280;8419;52.358;9.752;2023-01-15T05:47:25;99033.00;;;16.09;42.87
16613;BME280;8419;52.358;9.752;2023-01-15T05:50:11;99028.00;;;16.15;42.72
16613;BME280;8419;52.358;9.752;2023-01-15T05:52:56;99037.00;;;15.89;43.37
16613;BME280;8419;52.358;9.752;2023-01-15T05:55:42;99038.00;;;16.04;42.96
16613;BME280;8419;52.358;9.752;2023-01-15T05:58:27;99045.00;;;16.10;42.88
16613;BME280;8419;52.358;9.752;2023-01-15T06:01:12;99042.00;;;16.23;42.54
16613;BME280;8419;52.358;9.752;2023-01-15T06:03:58;99040.00;;;16.26;42.36
16613;BME280;8419;52.358;9.752;2023-01-15T06:06:44;99043.00;;;16.25;42.33
16613;BME280;8419;52.358;9.752;2023-01-15T06:09:28;99049.00;;;16.04;42.48
16613;BME280;8419;52.358;9.752;2023-01-15T06:12:19;99056.00;;;16.07;42.57
16613;BME280;8419;52.358;9.752;2023-01-15T06:15:06;99056.00;;;16.07;42.37
16613;BME280;8419;52.358;9.752;2023-01-15T06:17:53;99066.00;;;16.00;42.45
16613;BME280;8419;52.358;9.752;2023-01-15T06:20:39;99067.00;;;16.05;42.13
16613;BME280;8419;52.358;9.752;2023-01-15T06:23:25;99061.00;;;16.00;42.13
16613;BME280;8419;52.358;9.752;2023-01-15T06:26:13;99059.00;;;16.18;41.94
16613;BME280;8419;52.358;9.752;2023-01-15T06:28:59;99056.00;;;16.22;41.54
16613;BME280;8419;52.358;9.752;2023-01-15T06:31:44;99068.00;;;16.17;41.57
16613;BME280;8419;52.358;9.752;2023-01-15T06:34:30;99062.00;;;16.14;41.59
16613;BME280;8419;52.358;9.752;2023-01-15T06:37:16;99059.00;;;16.12;41.54
16613;BME280;8419;52.358;9.752;2023-01-15T06:40:01;99065.00;;;16.11;41.61
16613;BME280;8419;52.358;9.752;2023-01-15T06:42:46;99053.00;;;16.14;41.36
16613;BME280;8419;52.358;9.752;2023-01-15T06:45:50;99058.00;;;16.08;41.65
16613;BME280;8419;52.358;9.752;2023-01-15T06:52:08;99050.00;;;16.29;41.14
16613;BME280;8419;52.358;9.752;2023-01-15T06:54:54;99045.00;;;16.19;41.08
16613;BME280;8419;52.358;9.752;2023-01-15T06:57:39;99059.00;;;16.16;41.06
16613;BME280;8419;52.358;9.752;2023-01-15T07:00:24;99062.00;;;16.14;41.09
16613;BME280;8419;52.358;9.752;2023-01-15T07:03:10;99067.00;;;16.17;40.88
16613;BME280;8419;52.358;9.752;2023-01-15T07:05:57;99055.00;;;16.22;40.78
16613;BME280;8419;52.358;9.752;2023-01-15T07:08:43;99066.00;;;16.19;40.71
16613;BME280;8419;52.358;9.752;2023-01-15T07:11:28;99059.00;;;16.15;40.81
16613;BME280;8419;52.358;9.752;2023-01-15T07:14:13;99060.00;;;16.15;40.63
16613;BME280;8419;52.358;9.752;2023-01-15T07:16:58;99055.00;;;16.13;40.68
16613;BME280;8419;52.358;9.752;2023-01-15T07:19:46;99043.00;;;16.06;40.82
16613;BME280;8419;52.358;9.752;2023-01-15T07:22:31;99063.00;;;15.84;41.32
16613;BME280;8419;52.358;9.752;2023-01-15T07:25:16;99069.00;;;15.86;41.33
16613;BME280;8419;52.358;9.752;2023-01-15T07:28:02;99056.00;;;15.94;41.13
16613;BME280;8419;52.358;9.752;2023-01-15T07:30:47;99077.00;;;15.86;41.05
16613;BME280;8419;52.358;9.752;2023-01-15T07:33:34;99066.00;;;15.86;41.13
16613;BME280;8419;52.358;9.752;2023-01-15T07:36:19;99070.00;;;15.83;41.31
16613;BME280;8419;52.358;9.752;2023-01-15T07:39:04;99058.00;;;15.89;41.15
16613;BME280;8419;52.358;9.752;2023-01-15T07:41:50;99070.00;;;15.89;41.18
16613;BME280;8419;52.358;9.752;2023-01-15T07:44:53;99055.00;;;15.90;41.25
16613;BME280;8419;52.358;9.752;2023-01-15T07:47:57;99072.00;;;15.88;41.11
16613;BME280;8419;52.358;9.752;2023-01-15T07:51:01;99064.00;;;15.98;41.03
16613;BME280;8419;52.358;9.752;2023-01-15T07:53:46;99060.00;;;15.93;40.85
16613;BME280;8419;52.358;9.752;2023-01-15T07:56:32;99077.00;;;15.92;40.90
16613;BME280;8419;52.358;9.752;2023-01-15T07:59:17;99075.00;;;16.05;40.69
16613;BME280;8419;52.358;9.752;2023-01-15T08:02:05;99069.00;;;15.92;40.88
16613;BME280;8419;52.358;9.752;2023-01-15T08:04:51;99097.00;;;16.09;40.64
16613;BME280;8419;52.358;9.752;2023-01-15T08:07:38;99082.00;;;16.00;40.77
16613;BME280;8419;52.358;9.752;2023-01-15T08:10:24;99110.00;;;16.10;40.76
16613;BME280;8419;52.358;9.752;2023-01-15T08:13:10;99090.00;;;16.17;40.38
16613;BME280;8419;52.358;9.752;2023-01-15T08:16:14;99085.00;;;16.25;40.40
16613;BME280;8419;52.358;9.752;2023-01-15T08:18:59;99104.00;;;16.08;40.42
16613;BME280;8419;52.358;9.752;2023-01-15T08:21:45;99074.00;;;16.06;40.36
16613;BME280;8419;52.358;9.752;2023-01-15T08:24:31;99073.00;;;16.03;40.37
16613;BME280;8419;52.358;9.752;2023-01-15T08:27:16;99071.00;;;16.03;40.57
16613;BME280;8419;52.358;9.752;2023-01-15T08:30:03;99068.00;;;16.11;40.20
16613;BME280;8419;52.358;9.752;2023-01-15T08:32:49;99063.00;;;16.19;40.14
16613;BME280;8419;52.358;9.752;2023-01-15T08:35:35;99072.00;;;16.29;39.88
16613;BME280;8419;52.358;9.752;2023-01-15T08:38:20;99074.00;;;16.40;39.81
16613;BME280;8419;52.358;9.752;2023-01-15T08:41:05;99087.00;;;16.29;39.81
16613;BME280;8419;52.358;9.752;2023-01-15T08:43:51;99091.00;;;16.44;39.54
16613;BME280;8419;52.358;9.752;2023-01-15T08:46:36;99086.00;;;16.38;39.59
16613;BME280;8419;52.358;9.752;2023-01-15T08:49:23;99081.00;;;16.28;40.02
16613;BME280;8419;52.358;9.752;2023-01-15T08:52:08;99119.00;;;16.32;39.69
16613;BME280;8419;52.358;9.752;2023-01-15T08:54:53;99093.00;;;16.29;39.66
16613;BME280;8419;52.358;9.752;2023-01-15T08:57:39;99086.00;;;16.25;39.78
16613;BME280;8419;52.358;9.752;2023-01-15T09:00:24;99067.00;;;16.28;39.58
16613;BME280;8419;52.358;9.752;2023-01-15T09:03:10;99092.00;;;16.26;39.68
16613;BME280;8419;52.358;9.752;2023-01-15T09:05:58;99080.00;;;16.25;39.57
16613;BME280;8419;52.358;9.752;2023-01-15T09:08:44;99087.00;;;16.23;39.29
16613;BME280;8419;52.358;9.752;2023-01-15T09:11:29;99085.00;;;16.25;38.93
16613;BME280;8419;52.358;9.752;2023-01-15T09:14:15;99108.00;;;16.25;38.63
16613;BME280;8419;52.358;9.752;2023-01-15T09:17:01;99103.00;;;16.32;38.71
16613;BME280;8419;52.358;9.752;2023-01-15T09:19:46;99101.00;;;16.34;38.40
16613;BME280;8419;52.358;9.752;2023-01-15T09:22:31;99098.00;;;16.42;38.47
16613;BME280;8419;52.358;9.752;2023-01-15T09:25:17;99110.00;;;16.46;38.40
16613;BME280;8419;52.358;9.752;2023-01-15T09:28:04;99108.00;;;16.70;38.27
16613;BME280;8419;52.358;9.752;2023-01-15T09:30:49;99104.00;;;16.67;38.28
16613;BME280;8419;52.358;9.752;2023-01-15T09:33:36;99110.00;;;16.78;38.16
16613;BME280;8419;52.358;9.752;2023-01-15T09:36:23;99106.00;;;16.97;37.64
16613;BME280;8419;52.358;9.752;2023-01-15T09:39:12;99107.00;;;17.04;37.69
16613;BME280;8419;52.358;9.752;2023-01-15T09:42:06;99106.00;;;17.07;37.45
16613;BME280;8419;52.358;9.752;2023-01-15T09:45:08;99115.00;;;17.00;37.32
16613;BME280;8419;52.358;9.752;2023-01-15T09:48:06;99105.00;;;17.12;37.18
16613;BME280;8419;52.358;9.752;2023-01-15T09:51:05;99099.00;;;17.04;37.13
16613;BME280;8419;52.358;9.752;2023-01-15T09:54:12;99098.00;;;17.16;37.11
16613;BME280;8419;52.358;9.752;2023-01-15T09:57:00;99090.00;;;17.24;37.03
16613;BME280;8419;52.358;9.752;2023-01-15T09:59:47;99094.00;;;17.36;36.63
16613;BME280;8419;52.358;9.752;2023-01-15T10:02:39;99095.00;;;17.50;36.49
16613;BME280;8419;52.358;9.752;2023-01-15T10:05:29;99084.00;;;17.59;36.48
16613;BME280;8419;52.358;9.752;2023-01-15T10:08:20;99073.00;;;17.72;36.14
16613;BME280;8419;52.358;9.752;2023-01-15T10:11:33;99085.00;;;17.70;36.14
16613;BME280;8419;52.358;9.752;2023-01-15T10:14:44;99079.00;;;17.84;35.63
16613;BME280;8419;52.358;9.752;2023-01-15T10:17:37;99095.00;;;17.86;35.12
16613;BME280;8419;52.358;9.752;2023-01-15T10:20:40;99091.00;;;17.86;34.95
16613;BME280;8419;52.358;9.752;2023-01-15T10:23:33;99107.00;;;17.73;34.90
16613;BME280;8419;52.358;9.752;2023-01-15T10:26:29;99106.00;;;17.58;34.75
16613;BME280;8419;52.358;9.752;2023-01-15T10:29:25;99127.00;;;17.50;34.52
16613;BME280;8419;52.358;9.752;2023-01-15T10:32:22;99135.00;;;17.42;34.59
16613;BME280;8419;52.358;9.752;2023-01-15T10:35:49;99152.00;;;17.43;34.47
16613;BME280;8419;52.358;9.752;2023-01-15T10:38:45;99115.00;;;17.31;33.87
16613;BME280;8419;52.358;9.752;2023-01-15T10:41:45;99124.00;;;17.15;34.01
16613;BME280;8419;52.358;9.752;2023-01-15T10:44:41;99127.00;;;17.11;34.15
16613;BME280;8419;52.358;9.752;2023-01-15T10:47:34;99115.00;;;17.10;34.37
16613;BME280;8419;52.358;9.752;2023-01-15T10:50:22;99120.00;;;17.20;34.61
16613;BME280;8419;52.358;9.752;2023-01-15T10:53:13;99107.00;;;17.28;34.39
16613;BME280;8419;52.358;9.752;2023-01-15T10:56:08;99107.00;;;17.28;34.36
16613;BME280;8419;52.358;9.752;2023-01-15T10:59:03;99107.00;;;17.28;34.55
16613;BME280;8419;52.358;9.752;2023-01-15T11:01:53;99103.00;;;17.35;34.66
16613;BME280;8419;52.358;9.752;2023-01-15T11:04:39;99097.00;;;17.42;34.69
16613;BME280;8419;52.358;9.752;2023-01-15T11:07:29;99105.00;;;17.62;34.58
16613;BME280;8419;52.358;9.752;2023-01-15T11:10:20;99100.00;;;17.69;34.61
16613;BME280;8419;52.358;9.752;2023-01-15T11:13:18;99114.00;;;17.66;34.36
16613;BME280;8419;52.358;9.752;2023-01-15T11:16:25;99109.00;;;17.62;34.46
16613;BME280;8419;52.358;9.752;2023-01-15T11:19:45;99113.00;;;17.64;34.48
16613;BME280;8419;52.358;9.752;2023-01-15T11:22:31;99103.00;;;17.75;34.05
16613;BME280;8419;52.358;9.752;2023-01-15T11:25:28;99077.00;;;17.71;33.77
16613;BME280;8419;52.358;9.752;2023-01-15T11:28:13;99089.00;;;17.72;33.62
16613;BME280;8419;52.358;9.752;2023-01-15T11:31:01;99128.00;;;17.78;33.20
16613;BME280;8419;52.358;9.752;2023-01-15T11:33:58;99092.00;;;17.90;33.22
16613;BME280;8419;52.358;9.752;2023-01-15T11:36:43;99108.00;;;18.09;33.00
16613;BME280;8419;52.358;9.752;2023-01-15T11:39:29;99100.00;;;18.21;32.62
16613;BME280;8419;52.358;9.752;2023-01-15T11:42:16;99106.00;;;18.31;32.13
16613;BME280;8419;52.358;9.752;2023-01-15T11:45:22;99106.00;;;18.34;32.10
16613;BME280;8419;52.358;9.752;2023-01-15T11:48:26;99118.00;;;18.40;31.41
16613;BME280;8419;52.358;9.752;2023-01-15T11:51:32;99094.00;;;18.45;31.52
16613;BME280;8419;52.358;9.752;2023-01-15T11:54:23;99087.00;;;18.77;31.07
16613;BME280;8419;52.358;9.752;2023-01-15T11:57:10;99093.00;;;18.72;30.92
16613;BME280;8419;52.358;9.752;2023-01-15T11:59:56;99110.00;;;18.46;31.10
16613;BME280;8419;52.358;9.752;2023-01-15T12:02:44;99118.00;;;18.56;30.56
16613;BME280;8419;52.358;9.752;2023-01-15T12:05:33;99065.00;;;18.71;30.58
16613;BME280;8419;52.358;9.752;2023-01-15T12:08:30;99099.00;;;18.63;30.38
16613;BME280;8419;52.358;9.752;2023-01-15T12:11:30;99104.00;;;18.52;30.66
16613;BME280;8419;52.358;9.752;2023-01-15T12:14:45;99113.00;;;18.59;30.19
16613;BME280;8419;52.358;9.752;2023-01-15T12:17:54;99128.00;;;18.64;30.27
16613;BME280;8419;52.358;9.752;2023-01-15T12:20:53;99124.00;;;18.45;29.74
16613;BME280;8419;52.358;9.752;2023-01-15T12:24:01;99116.00;;;18.21;29.86
16613;BME280;8419;52.358;9.752;2023-01-15T12:26:59;99119.00;;;18.26;30.05
16613;BME280;8419;52.358;9.752;2023-01-15T12:29:53;99109.00;;;18.29;29.68
16613;BME280;8419;52.358;9.752;2023-01-15T12:32:43;99086.00;;;18.29;29.56
16613;BME280;8419;52.358;9.752;2023-01-15T12:35:31;99126.00;;;18.22;29.41
16613;BME280;8419;52.358;9.752;2023-01-15T12:38:25;99092.00;;;18.09;29.40
16613;BME280;8419;52.358;9.752;2023-01-15T12:41:21;99091.00;;;18.01;29.42
16613;BME280;8419;52.358;9.752;2023-01-15T12:44:08;99077.00;;;18.13;29.03
16613;BME280;8419;52.358;9.752;2023-01-15T12:47:17;99096.00;;;17.86;29.31
16613;BME280;8419;52.358;9.752;2023-01-15T12:50:21;99095.00;;;17.77;29.63
16613;BME280;8419;52.358;9.752;2023-01-15T12:53:13;99081.00;;;17.90;29.76
16613;BME280;8419;52.358;9.752;2023-01-15T12:56:06;99076.00;;;17.90;29.42
16613;BME280;8419;52.358;9.752;2023-01-15T12:59:02;99077.00;;;17.79;29.58
16613;BME280;8419;52.358;9.752;2023-01-15T13:01:54;99065.00;;;18.01;29.41
16613;BME280;8419;52.358;9.752;2023-01-15T13:04:47;99072.00;;;18.04;29.46
16613;BME280;8419;52.358;9.752;2023-01-15T13:07:36;99059.00;;;18.15;29.38
16613;BME280;8419;52.358;9.752;2023-01-15T13:10:26;99088.00;;;18.26;29.32
16613;BME280;8419;52.358;9.752;2023-01-15T13:13:16;99105.00;;;18.14;29.02
16613;BME280;8419;52.358;9.752;2023-01-15T13:16:14;99086.00;;;18.01;29.26
16613;BME280;8419;52.358;9.752;2023-01-15T13:19:21;99084.00;;;17.92;29.58
16613;BME280;8419;52.358;9.752;2023-01-15T13:22:36;99085.00;;;17.83;29.66
16613;BME280;8419;52.358;9.752;2023-01-15T13:25:39;99088.00;;;17.83;29.43
16613;BME280;8419;52.358;9.752;2023-01-15T13:28:46;99067.00;;;17.85;29.53
16613;BME280;8419;52.358;9.752;2023-01-15T13:31:57;99065.00;;;17.82;29.58
16613;BME280;8419;52.358;9.752;2023-01-15T13:34:46;99077.00;;;17.77;29.43
16613;BME280;8419;52.358;9.752;2023-01-15T13:37:36;99057.00;;;17.57;29.87
16613;BME280;8419;52.358;9.752;2023-01-15T13:40:27;99062.00;;;17.80;29.62
16613;BME280;8419;52.358;9.752;2023-01-15T13:43:34;99069.00;;;17.88;29.54
16613;BME280;8419;52.358;9.752;2023-01-15T13:46:24;99067.00;;;17.82;29.54
16613;BME280;8419;52.358;9.752;2023-01-15T13:49:18;99074.00;;;17.90;29.58
16613;BME280;8419;52.358;9.752;2023-01-15T13:52:06;99075.00;;;17.94;29.50
16613;BME280;8419;52.358;9.752;2023-01-15T13:54:54;99066.00;;;18.02;29.39
16613;BME280;8419;52.358;9.752;2023-01-15T13:57:42;99056.00;;;18.04;29.37
16613;BME280;8419;52.358;9.752;2023-01-15T14:00:31;99066.00;;;18.05;29.16
16613;BME280;8419;52.358;9.752;2023-01-15T14:03:25;99063.00;;;17.92;29.23
16613;BME280;8419;52.358;9.752;2023-01-15T14:06:10;99041.00;;;18.06;29.27
16613;BME280;8419;52.358;9.752;2023-01-15T14:08:56;99037.00;;;17.99;29.35
16613;BME280;8419;52.358;9.752;2023-01-15T14:11:55;99065.00;;;18.03;29.08
16613;BME280;8419;52.358;9.752;2023-01-15T14:14:59;99080.00;;;18.07;29.31
16613;BME280;8419;52.358;9.752;2023-01-15T14:18:05;99090.00;;;18.08;29.36
16613;BME280;8419;52.358;9.752;2023-01-15T14:21:18;99064.00;;;18.02;29.33
16613;BME280;8419;52.358;9.752;2023-01-15T14:27:38;99062.00;;;17.69;29.87
16613;BME280;8419;52.358;9.752;2023-01-15T14:30:46;99075.00;;;17.67;29.72
16613;BME280;8419;52.358;9.752;2023-01-15T14:33:52;99068.00;;;17.58;29.91
16613;BME280;8419;52.358;9.752;2023-01-15T14:36:48;99060.00;;;17.56;30.10
16613;BME280;8419;52.358;9.752;2023-01-15T14:39:39;99071.00;;;17.53;29.99
16613;BME280;8419;52.358;9.752;2023-01-15T14:42:28;99052.00;;;17.53;30.05
16613;BME280;8419;52.358;9.752;2023-01-15T14:45:35;99093.00;;;17.58;29.67
16613;BME280;8419;52.358;9.752;2023-01-15T14:48:36;99088.00;;;17.52;29.86
16613;BME280;8419;52.358;9.752;2023-01-15T14:51:26;99094.00;;;17.51;29.89
16613;BME280;8419;52.358;9.752;2023-01-15T14:54:16;99110.00;;;17.54;29.73
16613;BME280;8419;52.358;9.752;2023-01-15T14:57:07;99093.00;;;17.52;29.81
16613;BME280;8419;52.358;9.752;2023-01-15T14:59:55;99090.00;;;17.53;29.83
16613;BME280;8419;52.358;9.752;2023-01-15T15:02:43;99100.00;;;17.47;29.94
16613;BME280;8419;52.358;9.752;2023-01-15T15:05:33;99092.00;;;17.42;29.90
16613;BME280;8419;52.358;9.752;2023-01-15T15:08:28;99089.00;;;17.38;29.95
16613;BME280;8419;52.358;9.752;2023-01-15T15:11:22;99114.00;;;17.35;29.89
16613;BME280;8419;52.358;9.752;2023-01-15T15:14:27;99100.00;;;17.36;30.01
16613;BME280;8419;52.358;9.752;2023-01-15T15:17:19;99101.00;;;17.37;29.92
16613;BME280;8419;52.358;9.752;2023-01-15T15:20:21;99111.00;;;17.51;29.80
16613;BME280;8419;52.358;9.752;2023-01-15T15:23:18;99097.00;;;17.42;29.68